sensor_id;sensor_type;location;lat;lon;timestamp;pressure;altitude;pressure_sealevel;temperature;humidity
19457;BME280;9867;48.094;11.478;2023-03-04T00:00:42;95496.22;;;1.43;100.00
19457;BME280;9867;48.094;11.478;2023-03-04T00:03:11;95497.81;;;1.44;100.00
19457;BME280;9867;48.094;11.478;2023-03-04T00:05:40;95497.69;;;1.45;100.00
19457;BME280;9867;48.094;11.478;2023-03-04T00:08:07;95489.06;;;1.57;100.00
19457;BME280;9867;48.094;11.478;2023-03-04T00:10:33;95496.75;;;1.46;100.00
19457;BME280;9867;48.094;11.478;2023-03-04T00:13:00;95512.06;;;1.54;100.00
19457;BME280;9867;48.094;11.478;2023-03-04T00:15:27;95504.22;;;1.57;100.00
19457;BME280;9867;48.094;11.478;2023-03-04T00:17:53;95506.50;;;1.60;100.00
19457;BME280;9867;48.094;11.478;2023-03-04T00:20:20;95501.16;;;1.54;100.00
19457;BME280;9867;48.094;11.478;2023-03-04T00:22:46;95505.56;;;1.52;100.00
19457;BME280;9867;48.094;11.478;2023-03-04T00:25:14;95500.78;;;1.58;100.00
19457;BME280;9867;48.094;11.478;2023-03-04T00:27:40;95508.50;;;1.57;100.00
19457;BME280;9867;48.094;11.478;2023-03-04T00:30:10;95509.97;;;1.59;100.00
19457;BME280;9867;48.094;11.478;2023-03-04T00:32:37;95517.00;;;1.56;100.00
19457;BME280;9867;48.094;11.478;2023-03-04T00:35:05;95507.81;;;1.55;100.00
19457;BME280;9867;48.094;11.478;2023-03-04T00:37:33;95510.34;;;1.35;100.00
19457;BME280;9867;48.094;11.478;2023-03-04T00:39:59;95502.63;;;1.37;100.00
19457;BME280;9867;48.094;11.478;2023-03-04T00:42:26;95483.19;;;1.47;100.00
19457;BME280;9867;48.094;11.478;2023-03-04T00:44:52;95510.81;;;1.20;100.00
19457;BME280;9867;48.094;11.478;2023-03-04T00:47:18;95510.81;;;1.20;100.00
19457;BME280;9867;48.094;11.478;2023-03-04T00:49:46;95505.25;;;1.16;100.00
19457;BME280;9867;48.094;11.478;2023-03-04T00:52:12;95508.03;;;1.13;100.00
19457;BME280;9867;48.094;11.478;2023-03-04T00:54:39;95506.97;;;1.16;100.00
19457;BME280;9867;48.094;11.478;2023-03-04T00:57:05;95498.31;;;1.18;100.00
19457;BME280;9867;48.094;11.478;2023-03-04T00:59:32;95506.16;;;1.15;100.00
19457;BME280;9867;48.094;11.478;2023-03-04T01:01:59;95500.31;;;1.24;100.00
19457;BME280;9867;48.094;11.478;2023-03-04T01:04:25;95501.78;;;1.27;100.00
19457;BME280;9867;48.094;11.478;2023-03-04T01:06:53;95503.66;;;1.15;100.00
19457;BME280;9867;48.094;11.478;2023-03-04T01:09:19;95500.31;;;1.15;100.00
19457;BME280;9867;48.094;11.478;2023-03-04T01:11:46;95504.16;;;1.09;100.00
19457;BME280;9867;48.094;11.478;2023-03-04T01:14:12;95491.41;;;1.11;100.00
19457;BME280;9867;48.094;11.478;2023-03-04T01:16:39;95494.28;;;0.96;100.00
19457;BME280;9867;48.094;11.478;2023-03-04T01:19:05;95488.06;;;1.10;100.00
19457;BME280;9867;48.094;11.478;2023-03-04T01:21:32;95484.38;;;1.33;100.00
19457;BME280;9867;48.094;11.478;2023-03-04T01:23:59;95489.00;;;1.09;100.00
19457;BME280;9867;48.094;11.478;2023-03-04T01:26:26;95482.06;;;1.01;100.00
19457;BME280;9867;48.094;11.478;2023-03-04T01:28:53;95486.75;;;1.16;100.00
19457;BME280;9867;48.094;11.478;2023-03-04T01:31:20;95483.81;;;1.11;100.00
19457;BME280;9867;48.094;11.478;2023-03-04T01:33:46;95483.03;;;1.29;100.00
19457;BME280;9867;48.094;11.478;2023-03-04T01:36:13;95487.28;;;1.19;100.00
19457;BME280;9867;48.094;11.478;2023-03-04T01:38:40;95481.56;;;1.27;100.00
19457;BME280;9867;48.094;11.478;2023-03-04T01:41:08;95481.59;;;1.36;100.00
19457;BME280;9867;48.094;11.478;2023-03-04T01:43:36;95479.06;;;1.27;100.00
19457;BME280;9867;48.094;11.478;2023-03-04T01:46:04;95473.72;;;1.20;100.00
19457;BME280;9867;48.094;11.478;2023-03-04T01:48:34;95471.72;;;1.24;100.00
19457;BME280;9867;48.094;11.478;2023-03-04T01:51:02;95473.75;;;1.40;100.00
19457;BME280;9867;48.094;11.478;2023-03-04T01:53:30;95466.84;;;1.42;100.00
19457;BME280;9867;48.094;11.478;2023-03-04T01:56:00;95473.63;;;1.41;100.00
19457;BME280;9867;48.094;11.478;2023-03-04T01:58:29;95463.25;;;1.34;100.00
19457;BME280;9867;48.094;11.478;2023-03-04T02:00:56;95465.75;;;1.25;100.00
19457;BME280;9867;48.094;11.478;2023-03-04T02:03:23;95455.09;;;1.12;100.00
19457;BME280;9867;48.094;11.478;2023-03-04T02:05:51;95457.75;;;1.10;100.00
19457;BME280;9867;48.094;11.478;2023-03-04T02:08:20;95456.56;;;1.14;100.00
19457;BME280;9867;48.094;11.478;2023-03-04T02:10:47;95447.91;;;1.07;100.00
19457;BME280;9867;48.094;11.478;2023-03-04T02:13:15;95457.34;;;1.05;100.00
19457;BME280;9867;48.094;11.478;2023-03-04T02:15:44;95444.97;;;1.02;100.00
19457;BME280;9867;48.094;11.478;2023-03-04T02:18:16;95445.13;;;1.20;100.00
19457;BME280;9867;48.094;11.478;2023-03-04T02:20:53;95439.50;;;0.97;100.00
19457;BME280;9867;48.094;11.478;2023-03-04T02:23:25;95434.19;;;0.90;100.00
19457;BME280;9867;48.094;11.478;2023-03-04T02:26:11;95437.09;;;0.95;100.00
19457;BME280;9867;48.094;11.478;2023-03-04T02:28:38;95427.56;;;0.99;100.00
19457;BME280;9867;48.094;11.478;2023-03-04T02:31:10;95445.53;;;1.25;100.00
19457;BME280;9867;48.094;11.478;2023-03-04T02:33:42;95430.88;;;1.19;100.00
19457;BME280;9867;48.094;11.478;2023-03-04T02:36:09;95415.63;;;1.11;100.00
19457;BME280;9867;48.094;11.478;2023-03-04T02:38:35;95433.84;;;1.14;100.00
19457;BME280;9867;48.094;11.478;2023-03-04T02:41:02;95432.22;;;1.03;100.00
19457;BME280;9867;48.094;11.478;2023-03-04T02:43:30;95437.66;;;0.99;100.00
19457;BME280;9867;48.094;11.478;2023-03-04T02:45:57;95426.38;;;0.93;100.00
19457;BME280;9867;48.094;11.478;2023-03-04T02:48:23;95436.22;;;1.06;100.00
19457;BME280;9867;48.094;11.478;2023-03-04T02:50:51;95439.16;;;1.11;100.00
19457;BME280;9867;48.094;11.478;2023-03-04T02:53:19;95428.09;;;0.93;100.00
19457;BME280;9867;48.094;11.478;2023-03-04T02:55:46;95431.53;;;1.01;100.00
19457;BME280;9867;48.094;11.478;2023-03-04T02:58:13;95430.59;;;0.83;100.00
19457;BME280;9867;48.094;11.478;2023-03-04T03:00:43;95428.72;;;0.95;100.00
19457;BME280;9867;48.094;11.478;2023-03-04T03:03:10;95423.03;;;1.02;100.00
19457;BME280;9867;48.094;11.478;2023-03-04T03:05:37;95422.09;;;0.84;100.00
19457;BME280;9867;48.094;11.478;2023-03-04T03:08:05;95425.78;;;0.80;100.00
19457;BME280;9867;48.094;11.478;2023-03-04T03:10:32;95431.78;;;0.98;100.00
19457;BME280;9867;48.094;11.478;2023-03-04T03:12:59;95427.81;;;0.96;100.00
19457;BME280;9867;48.094;11.478;2023-03-04T03:15:25;95430.88;;;0.90;100.00
19457;BME280;9867;48.094;11.478;2023-03-04T03:17:54;95430.50;;;0.94;100.00
19457;BME280;9867;48.094;11.478;2023-03-04T03:20:21;95425.53;;;0.83;100.00
19457;BME280;9867;48.094;11.478;2023-03-04T03:22:47;95418.13;;;1.01;100.00
19457;BME280;9867;48.094;11.478;2023-03-04T03:25:15;95432.94;;;0.75;100.00
19457;BME280;9867;48.094;11.478;2023-03-04T03:27:42;95438.78;;;0.76;100.00
19457;BME280;9867;48.094;11.478;2023-03-04T03:30:12;95434.31;;;0.49;100.00
19457;BME280;9867;48.094;11.478;2023-03-04T03:32:39;95448.03;;;0.56;100.00
19457;BME280;9867;48.094;11.478;2023-03-04T03:35:07;95435.41;;;0.46;100.00
19457;BME280;9867;48.094;11.478;2023-03-04T03:37:34;95429.06;;;0.71;100.00
19457;BME280;9867;48.094;11.478;2023-03-04T03:40:00;95451.66;;;0.63;100.00
19457;BME280;9867;48.094;11.478;2023-03-04T03:42:26;95440.88;;;0.61;100.00
19457;BME280;9867;48.094;11.478;2023-03-04T03:44:53;95440.53;;;0.75;100.00
19457;BME280;9867;48.094;11.478;2023-03-04T03:47:20;95432.69;;;0.78;100.00
19457;BME280;9867;48.094;11.478;2023-03-04T03:49:47;95433.47;;;0.69;100.00
19457;BME280;9867;48.094;11.478;2023-03-04T03:52:14;95442.47;;;0.62;100.00
19457;BME280;9867;48.094;11.478;2023-03-04T03:54:41;95438.06;;;0.54;100.00
19457;BME280;9867;48.094;11.478;2023-03-04T03:57:08;95435.16;;;0.59;100.00
19457;BME280;9867;48.094;11.478;2023-03-04T03:59:34;95434.53;;;0.66;100.00
19457;BME280;9867;48.094;11.478;2023-03-04T04:02:01;95444.84;;;0.54;100.00
19457;BME280;9867;48.094;11.478;2023-03-04T04:04:27;95433.81;;;0.55;100.00
19457;BME280;9867;48.094;11.478;2023-03-04T04:06:54;95439.00;;;0.53;100.00
19457;BME280;9867;48.094;11.478;2023-03-04T04:09:21;95442.00;;;0.38;100.00
19457;BME280;9867;48.094;11.478;2023-03-04T04:11:48;95432.53;;;0.30;100.00
19457;BME280;9867;48.094;11.478;2023-03-04T04:14:14;95434.56;;;0.36;100.00
19457;BME280;9867;48.094;11.478;2023-03-04T04:16:41;95431.41;;;0.53;100.00
19457;BME280;9867;48.094;11.478;2023-03-04T04:19:11;95435.53;;;0.45;100.00
19457;BME280;9867;48.094;11.478;2023-03-04T04:21:39;95430.19;;;0.38;100.00
19457;BME280;9867;48.094;11.478;2023-03-04T04:24:05;95436.41;;;0.34;100.00
19457;BME280;9867;48.094;11.478;2023-03-04T04:26:33;95439.81;;;0.23;100.00
19457;BME280;9867;48.094;11.478;2023-03-04T04:28:59;95438.19;;;0.43;100.00
19457;BME280;9867;48.094;11.478;2023-03-04T04:31:26;95440.56;;;0.45;100.00
19457;BME280;9867;48.094;11.478;2023-03-04T04:33:52;95440.59;;;0.24;100.00
19457;BME280;9867;48.094;11.478;2023-03-04T04:36:22;95446.72;;;0.21;100.00
19457;BME280;9867;48.094;11.478;2023-03-04T04:38:48;95432.63;;;0.19;100.00
19457;BME280;9867;48.094;11.478;2023-03-04T04:41:18;95438.38;;;0.30;100.00
19457;BME280;9867;48.094;11.478;2023-03-04T04:43:46;95439.03;;;0.23;100.00
19457;BME280;9867;48.094;11.478;2023-03-04T04:46:13;95429.72;;;0.23;100.00
19457;BME280;9867;48.094;11.478;2023-03-04T04:48:40;95420.16;;;0.27;100.00
19457;BME280;9867;48.094;11.478;2023-03-04T04:51:07;95420.63;;;0.42;100.00
19457;BME280;9867;48.094;11.478;2023-03-04T04:53:33;95427.91;;;0.35;100.00
19457;BME280;9867;48.094;11.478;2023-03-04T04:56:07;95425.88;;;0.29;100.00
19457;BME280;9867;48.094;11.478;2023-03-04T04:58:35;95422.47;;;0.40;100.00
19457;BME280;9867;48.094;11.478;2023-03-04T05:01:02;95429.09;;;0.31;100.00
19457;BME280;9867;48.094;11.478;2023-03-04T05:03:29;95433.88;;;0.34;100.00
19457;BME280;9867;48.094;11.478;2023-03-04T05:05:56;95434.06;;;0.42;100.00
19457;BME280;9867;48.094;11.478;2023-03-04T05:08:23;95433.88;;;0.34;100.00
19457;BME280;9867;48.094;11.478;2023-03-04T05:10:51;95435.72;;;0.32;100.00
19457;BME280;9867;48.094;11.478;2023-03-04T05:13:18;95435.66;;;0.43;100.00
19457;BME280;9867;48.094;11.478;2023-03-04T05:15:44;95441.09;;;0.48;100.00
19457;BME280;9867;48.094;11.478;2023-03-04T05:18:12;95443.16;;;0.33;100.00
19457;BME280;9867;48.094;11.478;2023-03-04T05:20:38;95429.63;;;0.34;100.00
19457;BME280;9867;48.094;11.478;2023-03-04T05:23:05;95441.03;;;0.29;100.00
19457;BME280;9867;48.094;11.478;2023-03-04T05:25:31;95430.78;;;0.21;100.00
19457;BME280;9867;48.094;11.478;2023-03-04T05:27:58;95436.50;;;0.02;100.00
19457;BME280;9867;48.094;11.478;2023-03-04T05:30:26;95440.34;;;-0.04;100.00
19457;BME280;9867;48.094;11.478;2023-03-04T05:32:53;95442.47;;;0.01;100.00
19457;BME280;9867;48.094;11.478;2023-03-04T05:35:20;95433.81;;;0.24;100.00
19457;BME280;9867;48.094;11.478;2023-03-04T05:37:46;95420.75;;;0.10;100.00
19457;BME280;9867;48.094;11.478;2023-03-04T05:40:13;95446.53;;;0.13;100.00
19457;BME280;9867;48.094;11.478;2023-03-04T05:42:39;95442.53;;;0.11;100.00
19457;BME280;9867;48.094;11.478;2023-03-04T05:45:07;95438.16;;;0.13;100.00
19457;BME280;9867;48.094;11.478;2023-03-04T05:47:33;95446.84;;;-0.01;100.00
19457;BME280;9867;48.094;11.478;2023-03-04T05:50:00;95438.03;;;0.14;100.00
19457;BME280;9867;48.094;11.478;2023-03-04T05:52:27;95444.13;;;0.12;100.00
19457;BME280;9867;48.094;11.478;2023-03-04T05:54:53;95442.91;;;0.06;100.00
19457;BME280;9867;48.094;11.478;2023-03-04T05:57:20;95445.38;;;-0.04;100.00
19457;BME280;9867;48.094;11.478;2023-03-04T05:59:46;95441.75;;;-0.11;100.00
19457;BME280;9867;48.094;11.478;2023-03-04T06:02:13;95450.59;;;-0.16;100.00
19457;BME280;9867;48.094;11.478;2023-03-04T06:04:39;95455.38;;;0.08;100.00
19457;BME280;9867;48.094;11.478;2023-03-04T06:07:06;95453.53;;;0.10;100.00
19457;BME280;9867;48.094;11.478;2023-03-04T06:09:33;95452.00;;;0.18;100.00
19457;BME280;9867;48.094;11.478;2023-03-04T06:11:59;95461.66;;;0.13;100.00
19457;BME280;9867;48.094;11.478;2023-03-04T06:14:26;95460.38;;;0.19;100.00
19457;BME280;9867;48.094;11.478;2023-03-04T06:16:52;95458.78;;;0.18;100.00
19457;BME280;9867;48.094;11.478;2023-03-04T06:19:19;95461.88;;;0.31;100.00
19457;BME280;9867;48.094;11.478;2023-03-04T06:21:45;95462.78;;;0.30;100.00
19457;BME280;9867;48.094;11.478;2023-03-04T06:24:11;95468.41;;;0.33;100.00
19457;BME280;9867;48.094;11.478;2023-03-04T06:26:39;95477.44;;;0.36;100.00
19457;BME280;9867;48.094;11.478;2023-03-04T06:29:06;95479.63;;;0.20;100.00
19457;BME280;9867;48.094;11.478;2023-03-04T06:31:32;95469.41;;;0.00;100.00
19457;BME280;9867;48.094;11.478;2023-03-04T06:33:59;95480.03;;;0.25;100.00
19457;BME280;9867;48.094;11.478;2023-03-04T06:36:25;95495.88;;;2.52;100.00
19457;BME280;9867;48.094;11.478;2023-03-04T06:38:51;95499.06;;;3.36;100.00
19457;BME280;9867;48.094;11.478;2023-03-04T06:41:18;95504.47;;;3.68;100.00
19457;BME280;9867;48.094;11.478;2023-03-04T06:43:45;95500.34;;;3.22;100.00
19457;BME280;9867;48.094;11.478;2023-03-04T06:46:11;95507.31;;;2.93;100.00
19457;BME280;9867;48.094;11.478;2023-03-04T06:48:38;95503.19;;;3.19;100.00
19457;BME280;9867;48.094;11.478;2023-03-04T06:51:06;95495.91;;;3.52;100.00
19457;BME280;9867;48.094;11.478;2023-03-04T06:53:32;95500.53;;;3.92;100.00
19457;BME280;9867;48.094;11.478;2023-03-04T06:55:59;95506.78;;;3.17;100.00
19457;BME280;9867;48.094;11.478;2023-03-04T06:58:25;95495.78;;;2.24;100.00
19457;BME280;9867;48.094;11.478;2023-03-04T07:00:54;95494.78;;;1.79;100.00
19457;BME280;9867;48.094;11.478;2023-03-04T07:03:21;95497.16;;;1.70;100.00
19457;BME280;9867;48.094;11.478;2023-03-04T07:05:51;95503.97;;;1.70;100.00
19457;BME280;9867;48.094;11.478;2023-03-04T07:08:17;95500.63;;;1.69;100.00
19457;BME280;9867;48.094;11.478;2023-03-04T07:10:48;95509.03;;;1.80;100.00
19457;BME280;9867;48.094;11.478;2023-03-04T07:13:14;95508.50;;;1.86;100.00
19457;BME280;9867;48.094;11.478;2023-03-04T07:15:41;95506.75;;;1.96;100.00
19457;BME280;9867;48.094;11.478;2023-03-04T07:18:09;95514.88;;;1.99;100.00
19457;BME280;9867;48.094;11.478;2023-03-04T07:20:36;95500.09;;;2.04;100.00
19457;BME280;9867;48.094;11.478;2023-03-04T07:23:02;95510.22;;;1.95;100.00
19457;BME280;9867;48.094;11.478;2023-03-04T07:25:29;95515.03;;;1.79;100.00
19457;BME280;9867;48.094;11.478;2023-03-04T07:27:55;95510.88;;;1.58;100.00
19457;BME280;9867;48.094;11.478;2023-03-04T07:30:22;95500.09;;;1.47;100.00
19457;BME280;9867;48.094;11.478;2023-03-04T07:32:48;95516.97;;;1.36;100.00
19457;BME280;9867;48.094;11.478;2023-03-04T07:35:15;95505.41;;;1.34;100.00
19457;BME280;9867;48.094;11.478;2023-03-04T07:37:42;95509.81;;;1.42;100.00
19457;BME280;9867;48.094;11.478;2023-03-04T07:40:09;95509.28;;;1.38;100.00
19457;BME280;9867;48.094;11.478;2023-03-04T07:42:36;95515.00;;;1.40;100.00
19457;BME280;9867;48.094;11.478;2023-03-04T07:45:09;95517.66;;;1.39;100.00
19457;BME280;9867;48.094;11.478;2023-03-04T07:47:37;95523.13;;;1.53;100.00
19457;BME280;9867;48.094;11.478;2023-03-04T07:50:04;95525.38;;;1.56;100.00
19457;BME280;9867;48.094;11.478;2023-03-04T07:52:31;95518.47;;;1.68;100.00
19457;BME280;9867;48.094;11.478;2023-03-04T07:54:58;95524.59;;;1.75;100.00
19457;BME280;9867;48.094;11.478;2023-03-04T07:57:24;95530.72;;;1.82;100.00
19457;BME280;9867;48.094;11.478;2023-03-04T07:59:51;95534.59;;;1.77;100.00
19457;BME280;9867;48.094;11.478;2023-03-04T08:02:17;95536.84;;;1.80;100.00
19457;BME280;9867;48.094;11.478;2023-03-04T08:04:44;95548.16;;;1.76;100.00
19457;BME280;9867;48.094;11.478;2023-03-04T08:07:10;95545.88;;;1.73;100.00
19457;BME280;9867;48.094;11.478;2023-03-04T08:09:37;95547.63;;;1.72;100.00
19457;BME280;9867;48.094;11.478;2023-03-04T08:12:04;95543.91;;;1.76;100.00
19457;BME280;9867;48.094;11.478;2023-03-04T08:14:31;95543.34;;;1.92;100.00
19457;BME280;9867;48.094;11.478;2023-03-04T08:16:58;95542.28;;;1.94;100.00
19457;BME280;9867;48.094;11.478;2023-03-04T08:19:25;95546.94;;;1.70;100.00
19457;BME280;9867;48.094;11.478;2023-03-04T08:21:52;95544.03;;;1.84;100.00
19457;BME280;9867;48.094;11.478;2023-03-04T08:24:18;95548.69;;;1.79;100.00
19457;BME280;9867;48.094;11.478;2023-03-04T08:26:47;95562.00;;;1.91;100.00
19457;BME280;9867;48.094;11.478;2023-03-04T08:29:16;95554.44;;;2.10;100.00
19457;BME280;9867;48.094;11.478;2023-03-04T08:31:42;95545.09;;;1.91;100.00
19457;BME280;9867;48.094;11.478;2023-03-04T08:34:14;95554.97;;;2.04;100.00
19457;BME280;9867;48.094;11.478;2023-03-04T08:36:41;95540.16;;;1.99;100.00
19457;BME280;9867;48.094;11.478;2023-03-04T08:39:08;95550.97;;;2.11;100.00
19457;BME280;9867;48.094;11.478;2023-03-04T08:41:37;95545.91;;;2.11;100.00
19457;BME280;9867;48.094;11.478;2023-03-04T08:44:04;95554.13;;;2.13;100.00
19457;BME280;9867;48.094;11.478;2023-03-04T08:46:33;95548.81;;;2.26;100.00
19457;BME280;9867;48.094;11.478;2023-03-04T08:48:59;95552.13;;;2.36;100.00
19457;BME280;9867;48.094;11.478;2023-03-04T08:51:25;95553.97;;;2.53;100.00
19457;BME280;9867;48.094;11.478;2023-03-04T08:53:52;95555.69;;;2.53;100.00
19457;BME280;9867;48.094;11.478;2023-03-04T08:56:19;95563.44;;;2.51;100.00
19457;BME280;9867;48.094;11.478;2023-03-04T08:58:45;95558.63;;;2.48;100.00
19457;BME280;9867;48.094;11.478;2023-03-04T09:01:13;95562.09;;;2.57;100.00
19457;BME280;9867;48.094;11.478;2023-03-04T09:03:40;95558.25;;;2.43;100.00
19457;BME280;9867;48.094;11.478;2023-03-04T09:06:08;95561.97;;;2.58;100.00
19457;BME280;9867;48.094;11.478;2023-03-04T09:08:35;95567.13;;;2.66;100.00
19457;BME280;9867;48.094;11.478;2023-03-04T09:11:02;95555.91;;;2.79;100.00
19457;BME280;9867;48.094;11.478;2023-03-04T09:13:30;95558.91;;;2.92;100.00
19457;BME280;9867;48.094;11.478;2023-03-04T09:15:56;95563.31;;;2.90;100.00
19457;BME280;9867;48.094;11.478;2023-03-04T09:18:23;95555.16;;;2.96;100.00
19457;BME280;9867;48.094;11.478;2023-03-04T09:20:50;95558.50;;;2.96;100.00
19457;BME280;9867;48.094;11.478;2023-03-04T09:23:18;95551.84;;;2.95;100.00
19457;BME280;9867;48.094;11.478;2023-03-04T09:25:45;95549.75;;;3.08;100.00
19457;BME280;9867;48.094;11.478;2023-03-04T09:28:13;95547.06;;;3.20;100.00
19457;BME280;9867;48.094;11.478;2023-03-04T09:30:40;95548.28;;;3.43;100.00
19457;BME280;9867;48.094;11.478;2023-03-04T09:33:06;95541.31;;;3.45;100.00
19457;BME280;9867;48.094;11.478;2023-03-04T09:35:33;95535.88;;;3.40;100.00
19457;BME280;9867;48.094;11.478;2023-03-04T09:38:00;95540.81;;;3.41;100.00
19457;BME280;9867;48.094;11.478;2023-03-04T09:40:29;95541.59;;;3.42;100.00
19457;BME280;9867;48.094;11.478;2023-03-04T09:42:59;95542.22;;;3.54;100.00
19457;BME280;9867;48.094;11.478;2023-03-04T09:45:32;95535.28;;;3.73;100.00
19457;BME280;9867;48.094;11.478;2023-03-04T09:48:00;95548.00;;;3.82;100.00
19457;BME280;9867;48.094;11.478;2023-03-04T09:50:29;95546.16;;;4.01;100.00
19457;BME280;9867;48.094;11.478;2023-03-04T09:53:06;95551.06;;;3.85;100.00
19457;BME280;9867;48.094;11.478;2023-03-04T09:55:41;95543.88;;;4.16;100.00
19457;BME280;9867;48.094;11.478;2023-03-04T09:58:19;95545.84;;;4.04;100.00
19457;BME280;9867;48.094;11.478;2023-03-04T10:00:54;95540.25;;;4.19;100.00
19457;BME280;9867;48.094;11.478;2023-03-04T10:03:24;95550.69;;;4.33;100.00
19457;BME280;9867;48.094;11.478;2023-03-04T10:05:55;95550.34;;;4.54;100.00
19457;BME280;9867;48.094;11.478;2023-03-04T10:08:41;95543.78;;;4.43;100.00
19457;BME280;9867;48.094;11.478;2023-03-04T10:11:13;95540.59;;;4.41;100.00
19457;BME280;9867;48.094;11.478;2023-03-04T10:13:56;95533.00;;;4.75;100.00
19457;BME280;9867;48.094;11.478;2023-03-04T10:16:28;95528.75;;;4.84;100.00
19457;BME280;9867;48.094;11.478;2023-03-04T10:19:00;95535.66;;;4.66;100.00
19457;BME280;9867;48.094;11.478;2023-03-04T10:21:31;95516.06;;;4.58;100.00
19457;BME280;9867;48.094;11.478;2023-03-04T10:24:00;95523.47;;;4.77;100.00
19457;BME280;9867;48.094;11.478;2023-03-04T10:26:31;95521.09;;;4.76;100.00
19457;BME280;9867;48.094;11.478;2023-03-04T10:28:58;95516.72;;;4.60;100.00
19457;BME280;9867;48.094;11.478;2023-03-04T10:31:34;95513.41;;;4.94;100.00
19457;BME280;9867;48.094;11.478;2023-03-04T10:34:01;95516.00;;;5.10;100.00
19457;BME280;9867;48.094;11.478;2023-03-04T10:36:54;95508.63;;;5.33;100.00
19457;BME280;9867;48.094;11.478;2023-03-04T10:39:26;95523.84;;;5.17;100.00
19457;BME280;9867;48.094;11.478;2023-03-04T10:41:58;95515.72;;;5.13;100.00
19457;BME280;9867;48.094;11.478;2023-03-04T10:44:27;95512.13;;;4.98;100.00
19457;BME280;9867;48.094;11.478;2023-03-04T10:46:56;95505.03;;;5.09;100.00
19457;BME280;9867;48.094;11.478;2023-03-04T10:49:24;95507.03;;;5.32;100.00
19457;BME280;9867;48.094;11.478;2023-03-04T10:51:53;95504.78;;;5.29;100.00
19457;BME280;9867;48.094;11.478;2023-03-04T10:54:26;95504.97;;;5.35;100.00
19457;BME280;9867;48.094;11.478;2023-03-04T10:56:56;95499.28;;;5.58;100.00
19457;BME280;9867;48.094;11.478;2023-03-04T10:59:45;95506.28;;;5.56;100.00
19457;BME280;9867;48.094;11.478;2023-03-04T11:02:20;95492.38;;;5.18;100.00
19457;BME280;9867;48.094;11.478;2023-03-04T11:04:53;95485.75;;;5.41;100.00
19457;BME280;9867;48.094;11.478;2023-03-04T11:07:20;95481.16;;;5.61;100.00
19457;BME280;9867;48.094;11.478;2023-03-04T11:09:47;95497.91;;;5.79;100.00
19457;BME280;9867;48.094;11.478;2023-03-04T11:12:16;95492.66;;;5.97;100.00
19457;BME280;9867;48.094;11.478;2023-03-04T11:14:46;95496.66;;;6.08;100.00
19457;BME280;9867;48.094;11.478;2023-03-04T11:17:18;95491.25;;;6.27;100.00
19457;BME280;9867;48.094;11.478;2023-03-04T11:19:47;95490.25;;;6.53;100.00
19457;BME280;9867;48.094;11.478;2023-03-04T11:22:17;95494.53;;;6.52;100.00
19457;BME280;9867;48.094;11.478;2023-03-04T11:24:51;95491.56;;;6.24;100.00
19457;BME280;9867;48.094;11.478;2023-03-04T11:27:23;95489.44;;;6.44;100.00
19457;BME280;9867;48.094;11.478;2023-03-04T11:29:56;95492.97;;;6.43;100.00
19457;BME280;9867;48.094;11.478;2023-03-04T11:32:27;95492.03;;;6.28;100.00
19457;BME280;9867;48.094;11.478;2023-03-04T11:34:59;95490.28;;;6.20;100.00
19457;BME280;9867;48.094;11.478;2023-03-04T11:37:29;95493.94;;;6.26;100.00
19457;BME280;9867;48.094;11.478;2023-03-04T11:40:00;95485.66;;;5.99;100.00
19457;BME280;9867;48.094;11.478;2023-03-04T11:42:33;95486.28;;;5.77;100.00
19457;BME280;9867;48.094;11.478;2023-03-04T11:45:04;95468.81;;;5.98;100.00
19457;BME280;9867;48.094;11.478;2023-03-04T11:48:00;95483.44;;;6.04;100.00
19457;BME280;9867;48.094;11.478;2023-03-04T11:50:31;95472.13;;;6.15;100.00
19457;BME280;9867;48.094;11.478;2023-03-04T11:53:27;95479.31;;;6.03;100.00
19457;BME280;9867;48.094;11.478;2023-03-04T11:56:12;95485.03;;;5.97;100.00
19457;BME280;9867;48.094;11.478;2023-03-04T12:01:42;95481.03;;;6.19;100.00
19457;BME280;9867;48.094;11.478;2023-03-04T12:04:33;95467.75;;;6.64;100.00
19457;BME280;9867;48.094;11.478;2023-03-04T12:07:21;95466.06;;;6.32;100.00
19457;BME280;9867;48.094;11.478;2023-03-04T12:09:59;95459.56;;;6.30;100.00
19457;BME280;9867;48.094;11.478;2023-03-04T12:12:41;95462.06;;;6.38;100.00
19457;BME280;9867;48.094;11.478;2023-03-04T12:15:16;95469.25;;;6.34;100.00
19457;BME280;9867;48.094;11.478;2023-03-04T12:17:57;95451.31;;;6.75;100.00
19457;BME280;9867;48.094;11.478;2023-03-04T12:20:55;95452.25;;;6.10;100.00
19457;BME280;9867;48.094;11.478;2023-03-04T12:23:48;95443.94;;;6.16;100.00
19457;BME280;9867;48.094;11.478;2023-03-04T12:26:24;95437.84;;;6.42;100.00
19457;BME280;9867;48.094;11.478;2023-03-04T12:29:00;95432.59;;;6.43;100.00
19457;BME280;9867;48.094;11.478;2023-03-04T12:31:33;95438.56;;;6.75;100.00
19457;BME280;9867;48.094;11.478;2023-03-04T12:34:25;95434.88;;;6.77;100.00
19457;BME280;9867;48.094;11.478;2023-03-04T12:37:03;95414.84;;;6.66;100.00
19457;BME280;9867;48.094;11.478;2023-03-04T12:39:39;95415.69;;;6.90;100.00
19457;BME280;9867;48.094;11.478;2023-03-04T12:42:13;95407.22;;;6.97;100.00
19457;BME280;9867;48.094;11.478;2023-03-04T12:44:46;95403.41;;;6.93;100.00
19457;BME280;9867;48.094;11.478;2023-03-04T12:47:23;95397.56;;;6.84;100.00
19457;BME280;9867;48.094;11.478;2023-03-04T12:50:07;95394.34;;;7.22;100.00
19457;BME280;9867;48.094;11.478;2023-03-04T12:52:50;95399.94;;;7.17;100.00
19457;BME280;9867;48.094;11.478;2023-03-04T12:55:25;95401.03;;;7.23;100.00
19457;BME280;9867;48.094;11.478;2023-03-04T12:57:56;95395.75;;;7.24;100.00
19457;BME280;9867;48.094;11.478;2023-03-04T13:00:34;95399.09;;;7.25;100.00
19457;BME280;9867;48.094;11.478;2023-03-04T13:03:11;95404.03;;;7.26;100.00
19457;BME280;9867;48.094;11.478;2023-03-04T13:08:35;95395.06;;;7.76;100.00
19457;BME280;9867;48.094;11.478;2023-03-04T13:11:41;95383.91;;;7.31;100.00
19457;BME280;9867;48.094;11.478;2023-03-04T13:14:26;95381.88;;;7.27;100.00
19457;BME280;9867;48.094;11.478;2023-03-04T13:16:54;95379.97;;;7.66;100.00